sensor_id;sensor_type;location;lat;lon;timestamp;temperature;humidity
11399;DHT22;5755;48.116;11.608;2023-02-01T00:02:06;4.40;83.40
11399;DHT22;5755;48.116;11.608;2023-02-01T00:04:33;4.50;83.30
11399;DHT22;5755;48.116;11.608;2023-02-01T00:06:59;4.50;83.50
11399;DHT22;5755;48.116;11.608;2023-02-01T00:09:28;4.50;84.00
11399;DHT22;5755;48.116;11.608;2023-02-01T00:11:55;4.40;84.00
11399;DHT22;5755;48.116;11.608;2023-02-01T00:14:25;4.40;83.80
11399;DHT22;5755;48.116;11.608;2023-02-01T00:16:52;4.40;83.50
11399;DHT22;5755;48.116;11.608;2023-02-01T00:19:18;4.40;83.20
11399;DHT22;5755;48.116;11.608;2023-02-01T00:21:45;4.50;82.10
11399;DHT22;5755;48.116;11.608;2023-02-01T00:24:12;4.50;82.00
11399;DHT22;5755;48.116;11.608;2023-02-01T00:26:42;4.50;82.40
11399;DHT22;5755;48.116;11.608;2023-02-01T00:29:11;4.60;81.70
11399;DHT22;5755;48.116;11.608;2023-02-01T00:31:39;4.60;80.20
11399;DHT22;5755;48.116;11.608;2023-02-01T00:34:06;4.60;81.50
11399;DHT22;5755;48.116;11.608;2023-02-01T00:36:34;4.60;80.40
11399;DHT22;5755;48.116;11.608;2023-02-01T00:39:01;4.60;80.80
11399;DHT22;5755;48.116;11.608;2023-02-01T00:41:28;4.70;79.30
11399;DHT22;5755;48.116;11.608;2023-02-01T00:43:56;4.60;80.40
11399;DHT22;5755;48.116;11.608;2023-02-01T00:46:23;4.60;81.70
11399;DHT22;5755;48.116;11.608;2023-02-01T00:48:51;4.60;83.80
11399;DHT22;5755;48.116;11.608;2023-02-01T00:51:20;4.50;86.70
11399;DHT22;5755;48.116;11.608;2023-02-01T00:53:47;4.50;88.70
11399;DHT22;5755;48.116;11.608;2023-02-01T00:56:14;4.30;90.10
11399;DHT22;5755;48.116;11.608;2023-02-01T00:58:41;4.10;91.20
11399;DHT22;5755;48.116;11.608;2023-02-01T01:01:12;4.10;92.00
11399;DHT22;5755;48.116;11.608;2023-02-01T01:03:40;4.00;92.40
11399;DHT22;5755;48.116;11.608;2023-02-01T01:06:09;3.80;93.70
11399;DHT22;5755;48.116;11.608;2023-02-01T01:08:37;3.70;94.80
11399;DHT22;5755;48.116;11.608;2023-02-01T01:11:05;3.60;94.80
11399;DHT22;5755;48.116;11.608;2023-02-01T01:13:32;3.60;94.80
11399;DHT22;5755;48.116;11.608;2023-02-01T01:16:00;3.50;95.00
11399;DHT22;5755;48.116;11.608;2023-02-01T01:18:30;3.50;95.00
11399;DHT22;5755;48.116;11.608;2023-02-01T01:20:58;3.60;94.80
11399;DHT22;5755;48.116;11.608;2023-02-01T01:23:25;3.60;94.80
11399;DHT22;5755;48.116;11.608;2023-02-01T01:25:52;3.60;95.00
11399;DHT22;5755;48.116;11.608;2023-02-01T01:28:19;3.60;94.80
11399;DHT22;5755;48.116;11.608;2023-02-01T01:30:46;3.70;94.80
11399;DHT22;5755;48.116;11.608;2023-02-01T01:33:13;3.70;94.80
11399;DHT22;5755;48.116;11.608;2023-02-01T01:35:42;3.70;94.80
11399;DHT22;5755;48.116;11.608;2023-02-01T01:38:10;3.70;94.80
11399;DHT22;5755;48.116;11.608;2023-02-01T01:40:37;3.70;94.80
11399;DHT22;5755;48.116;11.608;2023-02-01T01:43:12;3.80;95.30
11399;DHT22;5755;48.116;11.608;2023-02-01T01:45:39;3.80;95.60
11399;DHT22;5755;48.116;11.608;2023-02-01T01:48:12;3.70;96.00
11399;DHT22;5755;48.116;11.608;2023-02-01T01:50:45;3.70;96.40
11399;DHT22;5755;48.116;11.608;2023-02-01T01:53:18;3.80;96.40
11399;DHT22;5755;48.116;11.608;2023-02-01T01:55:47;3.70;96.60
11399;DHT22;5755;48.116;11.608;2023-02-01T01:58:16;3.60;96.80
11399;DHT22;5755;48.116;11.608;2023-02-01T02:00:44;3.60;96.90
11399;DHT22;5755;48.116;11.608;2023-02-01T02:03:14;3.60;97.10
11399;DHT22;5755;48.116;11.608;2023-02-01T02:05:44;3.50;97.40
11399;DHT22;5755;48.116;11.608;2023-02-01T02:08:12;3.50;97.40
11399;DHT22;5755;48.116;11.608;2023-02-01T02:10:38;3.50;97.60
11399;DHT22;5755;48.116;11.608;2023-02-01T02:13:23;3.50;97.60
11399;DHT22;5755;48.116;11.608;2023-02-01T02:15:59;3.50;97.60
11399;DHT22;5755;48.116;11.608;2023-02-01T02:18:33;3.50;97.50
11399;DHT22;5755;48.116;11.608;2023-02-01T02:21:14;3.50;97.40
11399;DHT22;5755;48.116;11.608;2023-02-01T02:24:28;3.40;97.80
11399;DHT22;5755;48.116;11.608;2023-02-01T02:27:08;3.40;97.80
11399;DHT22;5755;48.116;11.608;2023-02-01T02:36:09;3.50;97.60
11399;DHT22;5755;48.116;11.608;2023-02-01T02:38:43;3.60;97.40
11399;DHT22;5755;48.116;11.608;2023-02-01T02:41:15;3.60;97.40
11399;DHT22;5755;48.116;11.608;2023-02-01T02:44:23;3.60;97.70
11399;DHT22;5755;48.116;11.608;2023-02-01T02:47:16;3.60;97.40
11399;DHT22;5755;48.116;11.608;2023-02-01T02:49:54;3.60;97.30
11399;DHT22;5755;48.116;11.608;2023-02-01T02:52:42;3.60;97.40
11399;DHT22;5755;48.116;11.608;2023-02-01T02:55:27;3.70;97.00
11399;DHT22;5755;48.116;11.608;2023-02-01T02:57:56;3.70;96.90
11399;DHT22;5755;48.116;11.608;2023-02-01T03:00:42;3.70;96.90
11399;DHT22;5755;48.116;11.608;2023-02-01T03:03:27;3.70;96.90
11399;DHT22;5755;48.116;11.608;2023-02-01T03:06:13;3.70;97.10
11399;DHT22;5755;48.116;11.608;2023-02-01T03:08:43;3.70;96.90
11399;DHT22;5755;48.116;11.608;2023-02-01T03:11:12;3.70;96.70
11399;DHT22;5755;48.116;11.608;2023-02-01T03:13:45;3.70;96.60
11399;DHT22;5755;48.116;11.608;2023-02-01T03:16:16;3.70;96.40
11399;DHT22;5755;48.116;11.608;2023-02-01T03:18:50;3.70;96.40
11399;DHT22;5755;48.116;11.608;2023-02-01T03:21:23;3.70;96.50
11399;DHT22;5755;48.116;11.608;2023-02-01T03:23:54;3.70;96.40
11399;DHT22;5755;48.116;11.608;2023-02-01T03:26:24;3.80;96.40
11399;DHT22;5755;48.116;11.608;2023-02-01T03:28:56;3.80;96.10
11399;DHT22;5755;48.116;11.608;2023-02-01T03:31:24;3.90;95.90
11399;DHT22;5755;48.116;11.608;2023-02-01T03:33:51;3.80;96.00
11399;DHT22;5755;48.116;11.608;2023-02-01T03:36:24;3.80;96.00
11399;DHT22;5755;48.116;11.608;2023-02-01T03:38:58;3.90;95.70
11399;DHT22;5755;48.116;11.608;2023-02-01T03:41:31;3.90;95.60
11399;DHT22;5755;48.116;11.608;2023-02-01T03:44:04;3.90;95.30
11399;DHT22;5755;48.116;11.608;2023-02-01T03:46:35;3.90;95.40
11399;DHT22;5755;48.116;11.608;2023-02-01T03:49:06;4.00;95.40
11399;DHT22;5755;48.116;11.608;2023-02-01T03:51:36;4.00;95.00
11399;DHT22;5755;48.116;11.608;2023-02-01T03:54:08;4.00;94.90
11399;DHT22;5755;48.116;11.608;2023-02-01T03:56:36;4.00;94.90
11399;DHT22;5755;48.116;11.608;2023-02-01T03:59:04;3.90;94.80
11399;DHT22;5755;48.116;11.608;2023-02-01T04:01:31;4.00;94.90
11399;DHT22;5755;48.116;11.608;2023-02-01T04:03:58;4.00;94.90
11399;DHT22;5755;48.116;11.608;2023-02-01T04:06:25;4.00;94.90
11399;DHT22;5755;48.116;11.608;2023-02-01T04:08:52;4.00;94.90
11399;DHT22;5755;48.116;11.608;2023-02-01T04:11:21;4.00;94.80
11399;DHT22;5755;48.116;11.608;2023-02-01T04:13:47;4.10;94.50
11399;DHT22;5755;48.116;11.608;2023-02-01T04:16:14;4.00;94.30
11399;DHT22;5755;48.116;11.608;2023-02-01T04:18:41;4.10;94.70
11399;DHT22;5755;48.116;11.608;2023-02-01T04:21:08;4.10;94.50
11399;DHT22;5755;48.116;11.608;2023-02-01T04:23:35;4.10;94.40
11399;DHT22;5755;48.116;11.608;2023-02-01T04:26:04;4.00;94.20
11399;DHT22;5755;48.116;11.608;2023-02-01T04:28:32;4.00;94.30
11399;DHT22;5755;48.116;11.608;2023-02-01T04:30:59;4.10;94.10
11399;DHT22;5755;48.116;11.608;2023-02-01T04:33:26;4.10;94.10
11399;DHT22;5755;48.116;11.608;2023-02-01T04:35:52;4.10;94.00
11399;DHT22;5755;48.116;11.608;2023-02-01T04:38:19;4.10;94.00
11399;DHT22;5755;48.116;11.608;2023-02-01T04:40:47;4.10;93.80
11399;DHT22;5755;48.116;11.608;2023-02-01T04:43:15;4.00;93.90
11399;DHT22;5755;48.116;11.608;2023-02-01T04:45:46;4.10;93.40
11399;DHT22;5755;48.116;11.608;2023-02-01T04:48:13;4.10;93.40
11399;DHT22;5755;48.116;11.608;2023-02-01T04:50:41;4.10;93.30
11399;DHT22;5755;48.116;11.608;2023-02-01T04:53:08;4.10;93.50
11399;DHT22;5755;48.116;11.608;2023-02-01T04:55:34;4.00;93.40
11399;DHT22;5755;48.116;11.608;2023-02-01T04:58:02;4.00;93.30
11399;DHT22;5755;48.116;11.608;2023-02-01T05:00:29;4.10;93.10
11399;DHT22;5755;48.116;11.608;2023-02-01T05:02:57;4.10;93.40
11399;DHT22;5755;48.116;11.608;2023-02-01T05:05:25;4.10;93.10
11399;DHT22;5755;48.116;11.608;2023-02-01T05:07:52;4.00;93.10
11399;DHT22;5755;48.116;11.608;2023-02-01T05:10:19;4.10;93.00
11399;DHT22;5755;48.116;11.608;2023-02-01T05:12:46;4.10;93.10
11399;DHT22;5755;48.116;11.608;2023-02-01T05:15:31;4.00;92.80
11399;DHT22;5755;48.116;11.608;2023-02-01T05:17:59;4.10;93.10
11399;DHT22;5755;48.116;11.608;2023-02-01T05:20:26;4.00;92.80
11399;DHT22;5755;48.116;11.608;2023-02-01T05:22:52;4.00;93.10
11399;DHT22;5755;48.116;11.608;2023-02-01T05:25:19;4.00;92.80
11399;DHT22;5755;48.116;11.608;2023-02-01T05:27:46;4.00;92.80
11399;DHT22;5755;48.116;11.608;2023-02-01T05:30:13;4.10;92.90
11399;DHT22;5755;48.116;11.608;2023-02-01T05:32:40;4.10;92.80
11399;DHT22;5755;48.116;11.608;2023-02-01T05:35:09;4.10;92.80
11399;DHT22;5755;48.116;11.608;2023-02-01T05:37:36;4.00;92.90
11399;DHT22;5755;48.116;11.608;2023-02-01T05:40:03;4.00;92.80
11399;DHT22;5755;48.116;11.608;2023-02-01T05:42:30;4.00;92.80
11399;DHT22;5755;48.116;11.608;2023-02-01T05:44:57;4.10;92.60
11399;DHT22;5755;48.116;11.608;2023-02-01T05:47:24;4.10;92.60
11399;DHT22;5755;48.116;11.608;2023-02-01T05:49:51;4.10;92.40
11399;DHT22;5755;48.116;11.608;2023-02-01T05:52:19;4.10;92.60
11399;DHT22;5755;48.116;11.608;2023-02-01T05:54:46;4.10;92.30
11399;DHT22;5755;48.116;11.608;2023-02-01T05:57:13;4.10;92.60
11399;DHT22;5755;48.116;11.608;2023-02-01T05:59:41;4.10;92.60
11399;DHT22;5755;48.116;11.608;2023-02-01T06:02:10;4.10;92.60
11399;DHT22;5755;48.116;11.608;2023-02-01T06:04:37;4.10;92.60
11399;DHT22;5755;48.116;11.608;2023-02-01T06:07:04;4.00;92.70
11399;DHT22;5755;48.116;11.608;2023-02-01T06:09:33;4.10;92.70
11399;DHT22;5755;48.116;11.608;2023-02-01T06:12:00;4.10;92.50
11399;DHT22;5755;48.116;11.608;2023-02-01T06:14:27;4.10;92.50
11399;DHT22;5755;48.116;11.608;2023-02-01T06:16:54;4.00;92.50
11399;DHT22;5755;48.116;11.608;2023-02-01T06:19:21;4.10;92.40
11399;DHT22;5755;48.116;11.608;2023-02-01T06:21:48;4.10;92.70
11399;DHT22;5755;48.116;11.608;2023-02-01T06:24:15;4.10;92.40
11399;DHT22;5755;48.116;11.608;2023-02-01T06:26:44;4.00;92.50
11399;DHT22;5755;48.116;11.608;2023-02-01T06:29:11;4.10;92.40
11399;DHT22;5755;48.116;11.608;2023-02-01T06:31:38;4.10;92.40
11399;DHT22;5755;48.116;11.608;2023-02-01T06:34:05;4.10;92.50
11399;DHT22;5755;48.116;11.608;2023-02-01T06:36:32;4.10;92.20
11399;DHT22;5755;48.116;11.608;2023-02-01T06:38:59;4.10;92.50
11399;DHT22;5755;48.116;11.608;2023-02-01T06:41:26;4.10;92.60
11399;DHT22;5755;48.116;11.608;2023-02-01T06:43:54;4.20;92.20
11399;DHT22;5755;48.116;11.608;2023-02-01T06:46:21;4.20;92.30
11399;DHT22;5755;48.116;11.608;2023-02-01T06:48:48;4.20;92.20
11399;DHT22;5755;48.116;11.608;2023-02-01T06:51:19;4.10;92.00
11399;DHT22;5755;48.116;11.608;2023-02-01T06:53:47;4.10;92.10
11399;DHT22;5755;48.116;11.608;2023-02-01T06:56:13;4.20;91.90
11399;DHT22;5755;48.116;11.608;2023-02-01T06:58:40;4.20;92.00
11399;DHT22;5755;48.116;11.608;2023-02-01T07:01:10;4.30;91.90
11399;DHT22;5755;48.116;11.608;2023-02-01T07:03:37;4.30;92.20
11399;DHT22;5755;48.116;11.608;2023-02-01T07:06:05;4.30;92.00
11399;DHT22;5755;48.116;11.608;2023-02-01T07:08:33;4.20;92.10
11399;DHT22;5755;48.116;11.608;2023-02-01T07:11:02;4.20;92.20
11399;DHT22;5755;48.116;11.608;2023-02-01T07:13:29;4.20;92.10
11399;DHT22;5755;48.116;11.608;2023-02-01T07:15:58;4.20;92.20
11399;DHT22;5755;48.116;11.608;2023-02-01T07:18:27;4.30;91.90
11399;DHT22;5755;48.116;11.608;2023-02-01T07:20:54;4.20;92.20
11399;DHT22;5755;48.116;11.608;2023-02-01T07:23:22;4.20;92.10
11399;DHT22;5755;48.116;11.608;2023-02-01T07:25:52;4.30;92.20
11399;DHT22;5755;48.116;11.608;2023-02-01T07:28:19;4.30;92.50
11399;DHT22;5755;48.116;11.608;2023-02-01T07:30:46;4.30;91.80
11399;DHT22;5755;48.116;11.608;2023-02-01T07:33:17;4.30;91.80
11399;DHT22;5755;48.116;11.608;2023-02-01T07:35:46;4.30;91.60
11399;DHT22;5755;48.116;11.608;2023-02-01T07:38:13;4.30;91.50
11399;DHT22;5755;48.116;11.608;2023-02-01T07:40:40;4.30;91.30
11399;DHT22;5755;48.116;11.608;2023-02-01T07:43:07;4.40;91.30
11399;DHT22;5755;48.116;11.608;2023-02-01T07:45:34;4.40;91.00
11399;DHT22;5755;48.116;11.608;2023-02-01T07:48:04;4.40;90.70
11399;DHT22;5755;48.116;11.608;2023-02-01T07:50:31;4.40;91.10
11399;DHT22;5755;48.116;11.608;2023-02-01T07:53:00;4.40;90.70
11399;DHT22;5755;48.116;11.608;2023-02-01T07:55:27;4.50;90.40
11399;DHT22;5755;48.116;11.608;2023-02-01T07:57:57;4.50;90.80
11399;DHT22;5755;48.116;11.608;2023-02-01T08:00:25;4.50;90.40
11399;DHT22;5755;48.116;11.608;2023-02-01T08:03:10;4.60;89.60
11399;DHT22;5755;48.116;11.608;2023-02-01T08:05:37;4.60;88.70
11399;DHT22;5755;48.116;11.608;2023-02-01T08:08:06;4.70;88.80
11399;DHT22;5755;48.116;11.608;2023-02-01T08:10:33;4.70;88.80
11399;DHT22;5755;48.116;11.608;2023-02-01T08:13:01;4.70;87.70
11399;DHT22;5755;48.116;11.608;2023-02-01T08:15:28;4.80;87.20
11399;DHT22;5755;48.116;11.608;2023-02-01T08:17:56;4.70;86.40
11399;DHT22;5755;48.116;11.608;2023-02-01T08:20:23;4.80;86.70
11399;DHT22;5755;48.116;11.608;2023-02-01T08:22:52;4.90;85.90
11399;DHT22;5755;48.116;11.608;2023-02-01T08:25:21;4.90;86.00
11399;DHT22;5755;48.116;11.608;2023-02-01T08:27:49;4.90;85.70
11399;DHT22;5755;48.116;11.608;2023-02-01T08:30:16;4.90;84.50
11399;DHT22;5755;48.116;11.608;2023-02-01T08:32:43;4.90;85.10
11399;DHT22;5755;48.116;11.608;2023-02-01T08:35:09;5.00;83.90
11399;DHT22;5755;48.116;11.608;2023-02-01T08:37:36;4.90;82.80
11399;DHT22;5755;48.116;11.608;2023-02-01T08:40:05;5.00;83.20
11399;DHT22;5755;48.116;11.608;2023-02-01T08:42:34;5.10;83.50
11399;DHT22;5755;48.116;11.608;2023-02-01T08:45:25;5.10;81.40
11399;DHT22;5755;48.116;11.608;2023-02-01T08:47:53;5.10;81.50
11399;DHT22;5755;48.116;11.608;2023-02-01T08:50:21;5.20;81.60
11399;DHT22;5755;48.116;11.608;2023-02-01T08:52:49;5.30;80.70
11399;DHT22;5755;48.116;11.608;2023-02-01T08:55:16;5.40;78.70
11399;DHT22;5755;48.116;11.608;2023-02-01T08:57:45;5.40;77.90
11399;DHT22;5755;48.116;11.608;2023-02-01T09:00:13;5.40;78.30
11399;DHT22;5755;48.116;11.608;2023-02-01T09:02:41;5.40;77.70
11399;DHT22;5755;48.116;11.608;2023-02-01T09:05:08;5.50;77.90
11399;DHT22;5755;48.116;11.608;2023-02-01T09:07:37;5.60;76.50
11399;DHT22;5755;48.116;11.608;2023-02-01T09:10:04;5.50;76.00
11399;DHT22;5755;48.116;11.608;2023-02-01T09:12:33;5.60;75.70
11399;DHT22;5755;48.116;11.608;2023-02-01T09:15:02;5.70;75.30
11399;DHT22;5755;48.116;11.608;2023-02-01T09:17:31;5.60;73.30
11399;DHT22;5755;48.116;11.608;2023-02-01T09:19:58;5.70;71.30
11399;DHT22;5755;48.116;11.608;2023-02-01T09:22:25;5.60;75.50
11399;DHT22;5755;48.116;11.608;2023-02-01T09:24:52;5.60;73.20
11399;DHT22;5755;48.116;11.608;2023-02-01T09:27:19;5.70;75.10
11399;DHT22;5755;48.116;11.608;2023-02-01T09:29:46;5.70;75.00
11399;DHT22;5755;48.116;11.608;2023-02-01T09:32:19;5.80;73.70
11399;DHT22;5755;48.116;11.608;2023-02-01T09:34:46;5.90;73.30
11399;DHT22;5755;48.116;11.608;2023-02-01T09:37:13;5.90;73.80
11399;DHT22;5755;48.116;11.608;2023-02-01T09:39:40;5.90;70.70
11399;DHT22;5755;48.116;11.608;2023-02-01T09:42:15;6.00;72.80
11399;DHT22;5755;48.116;11.608;2023-02-01T09:44:54;6.10;70.90
11399;DHT22;5755;48.116;11.608;2023-02-01T09:47:26;6.20;71.00
11399;DHT22;5755;48.116;11.608;2023-02-01T09:49:58;6.20;71.00
11399;DHT22;5755;48.116;11.608;2023-02-01T09:52:32;6.20;71.00
11399;DHT22;5755;48.116;11.608;2023-02-01T09:55:04;6.30;71.10
11399;DHT22;5755;48.116;11.608;2023-02-01T09:57:41;6.20;68.20
11399;DHT22;5755;48.116;11.608;2023-02-01T10:00:17;6.10;70.90
11399;DHT22;5755;48.116;11.608;2023-02-01T10:02:46;6.20;71.00
11399;DHT22;5755;48.116;11.608;2023-02-01T10:05:15;6.20;71.00
11399;DHT22;5755;48.116;11.608;2023-02-01T10:07:50;6.10;70.90
11399;DHT22;5755;48.116;11.608;2023-02-01T10:10:26;6.10;70.90
11399;DHT22;5755;48.116;11.608;2023-02-01T10:13:17;6.20;72.40
11399;DHT22;5755;48.116;11.608;2023-02-01T10:15:57;6.10;70.90
11399;DHT22;5755;48.116;11.608;2023-02-01T10:18:41;6.10;70.90
11399;DHT22;5755;48.116;11.608;2023-02-01T10:21:18;6.10;70.90
11399;DHT22;5755;48.116;11.608;2023-02-01T10:24:18;6.10;70.90
11399;DHT22;5755;48.116;11.608;2023-02-01T10:26:52;6.10;70.90
11399;DHT22;5755;48.116;11.608;2023-02-01T10:29:24;6.10;70.90
11399;DHT22;5755;48.116;11.608;2023-02-01T10:31:52;6.10;70.90
11399;DHT22;5755;48.116;11.608;2023-02-01T10:34:24;6.10;70.90
11399;DHT22;5755;48.116;11.608;2023-02-01T10:36:55;6.10;70.90
11399;DHT22;5755;48.116;11.608;2023-02-01T10:39:23;6.10;70.90
11399;DHT22;5755;48.116;11.608;2023-02-01T10:41:50;6.10;70.90
11399;DHT22;5755;48.116;11.608;2023-02-01T10:44:20;5.90;70.70
11399;DHT22;5755;48.116;11.608;2023-02-01T10:46:49;5.90;74.10
11399;DHT22;5755;48.116;11.608;2023-02-01T10:49:19;6.10;73.60
11399;DHT22;5755;48.116;11.608;2023-02-01T10:51:55;6.10;73.60
11399;DHT22;5755;48.116;11.608;2023-02-01T10:54:33;6.10;70.90
11399;DHT22;5755;48.116;11.608;2023-02-01T10:57:00;6.10;73.50
11399;DHT22;5755;48.116;11.608;2023-02-01T10:59:28;6.00;74.10
11399;DHT22;5755;48.116;11.608;2023-02-01T11:01:59;6.00;74.00
11399;DHT22;5755;48.116;11.608;2023-02-01T11:04:30;6.10;73.20
11399;DHT22;5755;48.116;11.608;2023-02-01T11:07:07;6.00;73.00
11399;DHT22;5755;48.116;11.608;2023-02-01T11:09:40;6.00;75.10
11399;DHT22;5755;48.116;11.608;2023-02-01T11:12:27;6.00;75.80
11399;DHT22;5755;48.116;11.608;2023-02-01T11:14:59;5.90;75.30
11399;DHT22;5755;48.116;11.608;2023-02-01T11:17:32;5.80;75.80
11399;DHT22;5755;48.116;11.608;2023-02-01T11:20:01;5.80;75.90
11399;DHT22;5755;48.116;11.608;2023-02-01T11:22:30;5.80;77.20
11399;DHT22;5755;48.116;11.608;2023-02-01T11:24:58;5.90;77.70
11399;DHT22;5755;48.116;11.608;2023-02-01T11:27:26;6.00;76.00
11399;DHT22;5755;48.116;11.608;2023-02-01T11:29:58;6.10;75.40
11399;DHT22;5755;48.116;11.608;2023-02-01T11:32:27;6.10;75.10
11399;DHT22;5755;48.116;11.608;2023-02-01T11:35:00;6.10;75.70
11399;DHT22;5755;48.116;11.608;2023-02-01T11:37:32;6.00;75.50
11399;DHT22;5755;48.116;11.608;2023-02-01T11:40:02;6.00;76.80
11399;DHT22;5755;48.116;11.608;2023-02-01T11:42:29;5.90;76.40
11399;DHT22;5755;48.116;11.608;2023-02-01T11:45:17;5.90;77.00
11399;DHT22;5755;48.116;11.608;2023-02-01T11:47:45;5.90;78.00
11399;DHT22;5755;48.116;11.608;2023-02-01T11:50:16;5.80;75.70
11399;DHT22;5755;48.116;11.608;2023-02-01T11:53:02;5.70;76.80
11399;DHT22;5755;48.116;11.608;2023-02-01T11:55:43;5.70;78.10
11399;DHT22;5755;48.116;11.608;2023-02-01T11:58:35;5.60;78.30
11399;DHT22;5755;48.116;11.608;2023-02-01T12:01:18;5.60;79.00
11399;DHT22;5755;48.116;11.608;2023-02-01T12:06:55;5.70;77.20
11399;DHT22;5755;48.116;11.608;2023-02-01T12:09:45;5.70;77.50
11399;DHT22;5755;48.116;11.608;2023-02-01T12:12:19;5.80;77.00
11399;DHT22;5755;48.116;11.608;2023-02-01T12:15:13;5.90;76.80
11399;DHT22;5755;48.116;11.608;2023-02-01T12:18:00;5.90;75.90
11399;DHT22;5755;48.116;11.608;2023-02-01T12:20:38;5.90;76.40
11399;DHT22;5755;48.116;11.608;2023-02-01T12:23:21;6.00;75.70
11399;DHT22;5755;48.116;11.608;2023-02-01T12:26:21;5.90;75.90
11399;DHT22;5755;48.116;11.608;2023-02-01T12:29:15;5.90;75.60
11399;DHT22;5755;48.116;11.608;2023-02-01T12:31:59;5.90;76.60
11399;DHT22;5755;48.116;11.608;2023-02-01T12:37:39;5.80;76.20
11399;DHT22;5755;48.116;11.608;2023-02-01T12:40:22;5.60;76.90
11399;DHT22;5755;48.116;11.608;2023-02-01T12:42:59;5.50;76.80
11399;DHT22;5755;48.116;11.608;2023-02-01T12:45:31;5.50;76.70
11399;DHT22;5755;48.116;11.608;2023-02-01T12:48:21;5.40;77.30
11399;DHT22;5755;48.116;11.608;2023-02-01T12:50:52;5.40;76.80
11399;DHT22;5755;48.116;11.608;2023-02-01T12:53:29;5.30;77.70
11399;DHT22;5755;48.116;11.608;2023-02-01T12:56:01;5.30;77.50
11399;DHT22;5755;48.116;11.608;2023-02-01T12:58:40;5.40;76.40
11399;DHT22;5755;48.116;11.608;2023-02-01T13:01:12;5.40;74.90
11399;DHT22;5755;48.116;11.608;2023-02-01T13:03:49;5.40;75.40
11399;DHT22;5755;48.116;11.608;2023-02-01T13:06:20;5.50;73.80
11399;DHT22;5755;48.116;11.608;2023-02-01T13:08:51;5.40;70.90
11399;DHT22;5755;48.116;11.608;2023-02-01T13:11:24;5.50;70.30
11399;DHT22;5755;48.116;11.608;2023-02-01T13:14:00;5.50;70.30
11399;DHT22;5755;48.116;11.608;2023-02-01T13:16:31;5.50;70.50
11399;DHT22;5755;48.116;11.608;2023-02-01T13:19:05;5.60;73.30
11399;DHT22;5755;48.116;11.608;2023-02-01T13:21:39;5.60;70.40
11399;DHT22;5755;48.116;11.608;2023-02-01T13:24:22;5.60;72.60
11399;DHT22;5755;48.116;11.608;2023-02-01T13:26:53;5.50;73.40
11399;DHT22;5755;48.116;11.608;2023-02-01T13:29:22;5.60;74.90
11399;DHT22;5755;48.116;11.608;2023-02-01T13:35:16;5.60;75.80
11399;DHT22;5755;48.116;11.608;2023-02-01T13:38:01;5.70;75.40
11399;DHT22;5755;48.116;11.608;2023-02-01T13:40:36;5.70;75.90
11399;DHT22;5755;48.116;11.608;2023-02-01T13:43:07;5.80;76.30
11399;DHT22;5755;48.116;11.608;2023-02-01T13:45:45;5.80;76.60
11399;DHT22;5755;48.116;11.608;2023-02-01T13:48:24;5.90;76.00
11399;DHT22;5755;48.116;11.608;2023-02-01T13:50:55;5.80;77.30
11399;DHT22;5755;48.116;11.608;2023-02-01T13:53:27;5.90;77.40
11399;DHT22;5755;48.116;11.608;2023-02-01T13:55:58;5.90;77.20
11399;DHT22;5755;48.116;11.608;2023-02-01T13:58:31;6.00;77.60
11399;DHT22;5755;48.116;11.608;2023-02-01T14:04:47;5.80;79.30
11399;DHT22;5755;48.116;11.608;2023-02-01T14:07:21;5.70;79.10
11399;DHT22;5755;48.116;11.608;2023-02-01T14:09:48;5.70;79.90
11399;DHT22;5755;48.116;11.608;2023-02-01T14:12:45;5.70;80.30
11399;DHT22;5755;48.116;11.608;2023-02-01T14:19:07;5.60;81.40
11399;DHT22;5755;48.116;11.608;2023-02-01T14:21:47;5.60;81.80
11399;DHT22;5755;48.116;11.608;2023-02-01T14:24:20;5.50;79.50
11399;DHT22;5755;48.116;11.608;2023-02-01T14:26:51;5.40;80.70
11399;DHT22;5755;48.116;11.608;2023-02-01T14:29:33;5.50;80.00
11399;DHT22;5755;48.116;11.608;2023-02-01T14:32:04;5.40;79.40
11399;DHT22;5755;48.116;11.608;2023-02-01T14:34:52;5.40;79.50
11399;DHT22;5755;48.116;11.608;2023-02-01T14:37:37;5.40;78.30
11399;DHT22;5755;48.116;11.608;2023-02-01T14:40:15;5.30;79.30
11399;DHT22;5755;48.116;11.608;2023-02-01T14:42:45;5.30;78.30
11399;DHT22;5755;48.116;11.608;2023-02-01T14:45:49;5.30;78.40
11399;DHT22;5755;48.116;11.608;2023-02-01T14:48:43;5.30;76.70
11399;DHT22;5755;48.116;11.608;2023-02-01T14:51:14;5.30;78.10
11399;DHT22;5755;48.116;11.608;2023-02-01T14:53:44;5.30;77.30
11399;DHT22;5755;48.116;11.608;2023-02-01T14:56:15;5.20;77.40
11399;DHT22;5755;48.116;11.608;2023-02-01T14:58:51;5.20;77.90
11399;DHT22;5755;48.116;11.608;2023-02-01T15:01:23;5.30;77.50
11399;DHT22;5755;48.116;11.608;2023-02-01T15:03:55;5.30;77.30
11399;DHT22;5755;48.116;11.608;2023-02-01T15:06:27;5.20;76.70
11399;DHT22;5755;48.116;11.608;2023-02-01T15:08:59;5.20;77.20
11399;DHT22;5755;48.116;11.608;2023-02-01T15:11:27;5.20;77.30
11399;DHT22;5755;48.116;11.608;2023-02-01T15:13:54;5.20;78.00
11399;DHT22;5755;48.116;11.608;2023-02-01T15:16:24;5.20;78.50
11399;DHT22;5755;48.116;11.608;2023-02-01T15:19:07;5.10;79.10
11399;DHT22;5755;48.116;11.608;2023-02-01T15:21:43;5.10;79.90
11399;DHT22;5755;48.116;11.608;2023-02-01T15:24:20;5.20;80.10
11399;DHT22;5755;48.116;11.608;2023-02-01T15:26:47;5.10;80.60
11399;DHT22;5755;48.116;11.608;2023-02-01T15:29:15;5.10;81.80
11399;DHT22;5755;48.116;11.608;2023-02-01T15:31:44;5.10;82.90
11399;DHT22;5755;48.116;11.608;2023-02-01T15:34:12;5.00;83.70
11399;DHT22;5755;48.116;11.608;2023-02-01T15:36:39;5.00;84.30
11399;DHT22;5755;48.116;11.608;2023-02-01T15:39:19;4.90;84.20
11399;DHT22;5755;48.116;11.608;2023-02-01T15:41:50;4.90;85.60
11399;DHT22;5755;48.116;11.608;2023-02-01T15:44:28;4.80;86.60
11399;DHT22;5755;48.116;11.608;2023-02-01T15:46:55;4.70;88.80
11399;DHT22;5755;48.116;11.608;2023-02-01T15:49:27;4.60;90.80
11399;DHT22;5755;48.116;11.608;2023-02-01T15:51:55;4.60;91.00
11399;DHT22;5755;48.116;11.608;2023-02-01T15:54:27;4.50;91.60
11399;DHT22;5755;48.116;11.608;2023-02-01T15:56:59;4.50;91.90
11399;DHT22;5755;48.116;11.608;2023-02-01T15:59:30;4.50;91.80
11399;DHT22;5755;48.116;11.608;2023-02-01T16:02:01;4.50;91.70
11399;DHT22;5755;48.116;11.608;2023-02-01T16:04:29;4.50;91.50
11399;DHT22;5755;48.116;11.608;2023-02-01T16:06:58;4.50;91.40
11399;DHT22;5755;48.116;11.608;2023-02-01T16:09:38;4.60;91.00
11399;DHT22;5755;48.116;11.608;2023-02-01T16:12:26;4.50;90.80
11399;DHT22;5755;48.116;11.608;2023-02-01T16:14:55;4.50;90.60
11399;DHT22;5755;48.116;11.608;2023-02-01T16:17:21;4.40;90.70
11399;DHT22;5755;48.116;11.608;2023-02-01T16:19:48;4.30;90.20
11399;DHT22;5755;48.116;11.608;2023-02-01T16:22:16;4.30;89.60
11399;DHT22;5755;48.116;11.608;2023-02-01T16:24:45;4.40;88.70
11399;DHT22;5755;48.116;11.608;2023-02-01T16:27:12;4.40;88.60
11399;DHT22;5755;48.116;11.608;2023-02-01T16:29:38;4.40;88.60
11399;DHT22;5755;48.116;11.608;2023-02-01T16:32:05;4.40;88.60
11399;DHT22;5755;48.116;11.608;2023-02-01T16:34:32;4.50;88.70
11399;DHT22;5755;48.116;11.608;2023-02-01T16:37:02;4.40;88.60